sensor_id;sensor_type;location;lat;lon;timestamp;temperature;humidity
31133;DHT22;17779;50.942;4.026;2024-01-07T00:00:05;3.50;99.90
31133;DHT22;17779;50.942;4.026;2024-01-07T00:02:31;3.60;99.90
31133;DHT22;17779;50.942;4.026;2024-01-07T00:04:57;3.60;99.90
31133;DHT22;17779;50.942;4.026;2024-01-07T00:07:23;3.60;99.90
31133;DHT22;17779;50.942;4.026;2024-01-07T00:09:49;3.60;99.90
31133;DHT22;17779;50.942;4.026;2024-01-07T00:12:15;3.60;99.90
31133;DHT22;17779;50.942;4.026;2024-01-07T00:14:41;3.80;99.90
31133;DHT22;17779;50.942;4.026;2024-01-07T00:17:06;3.80;99.90
31133;DHT22;17779;50.942;4.026;2024-01-07T00:19:32;3.80;99.90
31133;DHT22;17779;50.942;4.026;2024-01-07T00:22:00;3.80;99.90
31133;DHT22;17779;50.942;4.026;2024-01-07T00:24:29;3.70;99.90
31133;DHT22;17779;50.942;4.026;2024-01-07T00:26:56;3.60;99.90
31133;DHT22;17779;50.942;4.026;2024-01-07T00:29:22;3.80;99.90
31133;DHT22;17779;50.942;4.026;2024-01-07T00:31:48;3.80;99.90
31133;DHT22;17779;50.942;4.026;2024-01-07T00:34:13;4.00;99.90
31133;DHT22;17779;50.942;4.026;2024-01-07T00:36:39;4.00;99.90
31133;DHT22;17779;50.942;4.026;2024-01-07T00:39:05;4.00;99.90
31133;DHT22;17779;50.942;4.026;2024-01-07T00:41:31;3.90;99.90
31133;DHT22;17779;50.942;4.026;2024-01-07T00:43:56;3.80;99.90
31133;DHT22;17779;50.942;4.026;2024-01-07T00:46:23;3.70;99.90
31133;DHT22;17779;50.942;4.026;2024-01-07T00:48:49;3.70;99.90
31133;DHT22;17779;50.942;4.026;2024-01-07T00:51:14;3.80;99.90
31133;DHT22;17779;50.942;4.026;2024-01-07T00:53:40;3.70;99.90
31133;DHT22;17779;50.942;4.026;2024-01-07T00:56:06;3.80;99.90
31133;DHT22;17779;50.942;4.026;2024-01-07T00:58:31;3.80;99.90
31133;DHT22;17779;50.942;4.026;2024-01-07T01:00:58;3.80;99.90
31133;DHT22;17779;50.942;4.026;2024-01-07T01:03:26;3.80;99.90
31133;DHT22;17779;50.942;4.026;2024-01-07T01:05:52;3.80;99.90
31133;DHT22;17779;50.942;4.026;2024-01-07T01:08:19;3.80;99.90
31133;DHT22;17779;50.942;4.026;2024-01-07T01:10:45;3.80;99.90
31133;DHT22;17779;50.942;4.026;2024-01-07T01:13:10;3.80;99.90
31133;DHT22;17779;50.942;4.026;2024-01-07T01:15:36;3.80;99.90
31133;DHT22;17779;50.942;4.026;2024-01-07T01:18:02;3.80;99.90
31133;DHT22;17779;50.942;4.026;2024-01-07T01:20:27;3.90;99.90
31133;DHT22;17779;50.942;4.026;2024-01-07T01:22:54;3.80;99.90
31133;DHT22;17779;50.942;4.026;2024-01-07T01:25:20;3.80;99.90
31133;DHT22;17779;50.942;4.026;2024-01-07T01:27:46;3.90;99.90
31133;DHT22;17779;50.942;4.026;2024-01-07T01:30:11;3.90;99.90
31133;DHT22;17779;50.942;4.026;2024-01-07T01:32:38;3.80;99.90
31133;DHT22;17779;50.942;4.026;2024-01-07T01:35:04;3.80;99.90
31133;DHT22;17779;50.942;4.026;2024-01-07T01:37:30;3.80;99.90
31133;DHT22;17779;50.942;4.026;2024-01-07T01:40:01;3.70;99.90
31133;DHT22;17779;50.942;4.026;2024-01-07T01:42:26;3.70;99.90
31133;DHT22;17779;50.942;4.026;2024-01-07T01:44:52;3.80;99.90
31133;DHT22;17779;50.942;4.026;2024-01-07T01:47:22;3.70;99.90
31133;DHT22;17779;50.942;4.026;2024-01-07T01:49:48;3.70;99.90
31133;DHT22;17779;50.942;4.026;2024-01-07T01:52:14;3.70;99.90
31133;DHT22;17779;50.942;4.026;2024-01-07T01:54:39;3.70;99.90
31133;DHT22;17779;50.942;4.026;2024-01-07T01:57:07;3.70;99.90
31133;DHT22;17779;50.942;4.026;2024-01-07T01:59:35;3.60;99.90
31133;DHT22;17779;50.942;4.026;2024-01-07T02:02:02;3.70;99.90
31133;DHT22;17779;50.942;4.026;2024-01-07T02:04:27;3.70;99.90
31133;DHT22;17779;50.942;4.026;2024-01-07T02:06:53;3.70;99.90
31133;DHT22;17779;50.942;4.026;2024-01-07T02:09:20;3.80;99.90
31133;DHT22;17779;50.942;4.026;2024-01-07T02:12:00;3.80;99.90
31133;DHT22;17779;50.942;4.026;2024-01-07T02:14:26;3.70;99.90
31133;DHT22;17779;50.942;4.026;2024-01-07T02:16:52;3.60;99.90
31133;DHT22;17779;50.942;4.026;2024-01-07T02:19:17;3.70;99.90
31133;DHT22;17779;50.942;4.026;2024-01-07T02:21:44;3.70;99.90
31133;DHT22;17779;50.942;4.026;2024-01-07T02:24:15;3.70;99.90
31133;DHT22;17779;50.942;4.026;2024-01-07T02:26:40;3.70;99.90
31133;DHT22;17779;50.942;4.026;2024-01-07T02:29:06;3.70;99.90
31133;DHT22;17779;50.942;4.026;2024-01-07T02:31:32;3.60;99.90
31133;DHT22;17779;50.942;4.026;2024-01-07T02:33:57;3.60;99.90
31133;DHT22;17779;50.942;4.026;2024-01-07T02:36:23;3.60;99.90
31133;DHT22;17779;50.942;4.026;2024-01-07T02:38:49;3.70;99.90
31133;DHT22;17779;50.942;4.026;2024-01-07T02:41:15;3.60;99.90
31133;DHT22;17779;50.942;4.026;2024-01-07T02:43:41;3.60;99.90
31133;DHT22;17779;50.942;4.026;2024-01-07T02:46:07;3.60;99.90
31133;DHT22;17779;50.942;4.026;2024-01-07T02:48:32;3.80;99.90
31133;DHT22;17779;50.942;4.026;2024-01-07T02:50:58;3.70;99.90
31133;DHT22;17779;50.942;4.026;2024-01-07T02:53:24;3.70;99.90
31133;DHT22;17779;50.942;4.026;2024-01-07T02:55:50;3.80;99.90
31133;DHT22;17779;50.942;4.026;2024-01-07T02:58:16;3.70;99.90
31133;DHT22;17779;50.942;4.026;2024-01-07T03:00:42;3.70;99.90
31133;DHT22;17779;50.942;4.026;2024-01-07T03:03:09;3.60;99.90
31133;DHT22;17779;50.942;4.026;2024-01-07T03:05:35;3.50;99.90
31133;DHT22;17779;50.942;4.026;2024-01-07T03:08:01;3.50;99.90
31133;DHT22;17779;50.942;4.026;2024-01-07T03:10:26;3.50;99.90
31133;DHT22;17779;50.942;4.026;2024-01-07T03:12:52;3.50;99.90
31133;DHT22;17779;50.942;4.026;2024-01-07T03:15:18;3.70;99.90
31133;DHT22;17779;50.942;4.026;2024-01-07T03:17:43;3.70;99.90
31133;DHT22;17779;50.942;4.026;2024-01-07T03:20:09;3.70;99.90
31133;DHT22;17779;50.942;4.026;2024-01-07T03:22:35;3.60;99.90
31133;DHT22;17779;50.942;4.026;2024-01-07T03:25:03;3.60;99.90
31133;DHT22;17779;50.942;4.026;2024-01-07T03:27:30;3.50;99.90
31133;DHT22;17779;50.942;4.026;2024-01-07T03:29:55;3.40;99.90
31133;DHT22;17779;50.942;4.026;2024-01-07T03:32:21;3.30;99.90
31133;DHT22;17779;50.942;4.026;2024-01-07T03:34:47;3.40;99.90
31133;DHT22;17779;50.942;4.026;2024-01-07T03:37:14;3.30;99.90
31133;DHT22;17779;50.942;4.026;2024-01-07T03:39:39;3.30;99.90
31133;DHT22;17779;50.942;4.026;2024-01-07T03:42:05;3.30;99.90
31133;DHT22;17779;50.942;4.026;2024-01-07T03:44:37;3.30;99.90
31133;DHT22;17779;50.942;4.026;2024-01-07T03:47:03;3.30;99.90
31133;DHT22;17779;50.942;4.026;2024-01-07T03:49:28;3.30;99.90
31133;DHT22;17779;50.942;4.026;2024-01-07T03:51:54;3.30;99.90
31133;DHT22;17779;50.942;4.026;2024-01-07T03:54:20;3.20;99.90
31133;DHT22;17779;50.942;4.026;2024-01-07T03:56:45;3.20;99.90
31133;DHT22;17779;50.942;4.026;2024-01-07T03:59:11;3.10;99.90
31133;DHT22;17779;50.942;4.026;2024-01-07T04:01:37;3.20;99.90
31133;DHT22;17779;50.942;4.026;2024-01-07T04:04:02;3.20;99.90
31133;DHT22;17779;50.942;4.026;2024-01-07T04:06:29;3.20;99.90
31133;DHT22;17779;50.942;4.026;2024-01-07T04:08:55;3.30;99.90
31133;DHT22;17779;50.942;4.026;2024-01-07T04:11:21;3.40;99.90
31133;DHT22;17779;50.942;4.026;2024-01-07T04:13:47;3.50;99.90
31133;DHT22;17779;50.942;4.026;2024-01-07T04:16:17;3.50;99.90
31133;DHT22;17779;50.942;4.026;2024-01-07T04:18:43;3.50;99.90
31133;DHT22;17779;50.942;4.026;2024-01-07T04:21:09;3.30;99.90
31133;DHT22;17779;50.942;4.026;2024-01-07T04:23:36;3.30;99.90
31133;DHT22;17779;50.942;4.026;2024-01-07T04:26:03;3.10;99.90
31133;DHT22;17779;50.942;4.026;2024-01-07T04:28:29;3.10;99.90
31133;DHT22;17779;50.942;4.026;2024-01-07T04:30:54;3.20;99.90
31133;DHT22;17779;50.942;4.026;2024-01-07T04:33:20;3.30;99.90
31133;DHT22;17779;50.942;4.026;2024-01-07T04:35:46;3.40;99.90
31133;DHT22;17779;50.942;4.026;2024-01-07T04:38:11;3.20;99.90
31133;DHT22;17779;50.942;4.026;2024-01-07T04:40:37;3.20;99.90
31133;DHT22;17779;50.942;4.026;2024-01-07T04:43:03;3.20;99.90
31133;DHT22;17779;50.942;4.026;2024-01-07T04:45:28;3.10;99.90
31133;DHT22;17779;50.942;4.026;2024-01-07T04:47:54;3.00;99.90
31133;DHT22;17779;50.942;4.026;2024-01-07T04:50:20;2.90;99.90
31133;DHT22;17779;50.942;4.026;2024-01-07T04:52:45;3.00;99.90
31133;DHT22;17779;50.942;4.026;2024-01-07T04:55:12;3.20;99.90
31133;DHT22;17779;50.942;4.026;2024-01-07T04:57:38;3.20;99.90
31133;DHT22;17779;50.942;4.026;2024-01-07T05:00:04;3.20;99.90
31133;DHT22;17779;50.942;4.026;2024-01-07T05:02:30;3.10;99.90
31133;DHT22;17779;50.942;4.026;2024-01-07T05:04:56;3.10;99.90
31133;DHT22;17779;50.942;4.026;2024-01-07T05:07:21;3.30;99.90
31133;DHT22;17779;50.942;4.026;2024-01-07T05:09:47;3.40;99.90
31133;DHT22;17779;50.942;4.026;2024-01-07T05:12:12;3.30;99.90
31133;DHT22;17779;50.942;4.026;2024-01-07T05:14:38;3.30;99.90
31133;DHT22;17779;50.942;4.026;2024-01-07T05:17:05;3.20;99.90
31133;DHT22;17779;50.942;4.026;2024-01-07T05:19:30;3.20;99.90
31133;DHT22;17779;50.942;4.026;2024-01-07T05:21:56;3.20;99.90
31133;DHT22;17779;50.942;4.026;2024-01-07T05:24:22;3.10;99.90
31133;DHT22;17779;50.942;4.026;2024-01-07T05:26:48;3.10;99.90
31133;DHT22;17779;50.942;4.026;2024-01-07T05:29:14;3.20;99.90
31133;DHT22;17779;50.942;4.026;2024-01-07T05:31:39;3.20;99.90
31133;DHT22;17779;50.942;4.026;2024-01-07T05:34:05;3.00;99.90
31133;DHT22;17779;50.942;4.026;2024-01-07T05:36:31;2.90;99.90
31133;DHT22;17779;50.942;4.026;2024-01-07T05:38:56;3.00;99.90
31133;DHT22;17779;50.942;4.026;2024-01-07T05:41:24;2.90;99.90
31133;DHT22;17779;50.942;4.026;2024-01-07T05:43:50;3.00;99.90
31133;DHT22;17779;50.942;4.026;2024-01-07T05:46:16;3.00;99.90
31133;DHT22;17779;50.942;4.026;2024-01-07T05:48:46;2.90;99.90
31133;DHT22;17779;50.942;4.026;2024-01-07T05:51:12;2.90;99.90
31133;DHT22;17779;50.942;4.026;2024-01-07T05:53:39;2.90;99.90
31133;DHT22;17779;50.942;4.026;2024-01-07T05:56:04;3.10;99.90
31133;DHT22;17779;50.942;4.026;2024-01-07T05:58:30;3.30;99.90
31133;DHT22;17779;50.942;4.026;2024-01-07T06:00:56;3.00;99.90
31133;DHT22;17779;50.942;4.026;2024-01-07T06:03:22;3.00;99.90
31133;DHT22;17779;50.942;4.026;2024-01-07T06:05:47;3.00;99.90
31133;DHT22;17779;50.942;4.026;2024-01-07T06:08:13;3.00;99.90
31133;DHT22;17779;50.942;4.026;2024-01-07T06:10:42;3.10;99.90
31133;DHT22;17779;50.942;4.026;2024-01-07T06:13:07;3.10;99.90
31133;DHT22;17779;50.942;4.026;2024-01-07T06:15:33;3.10;99.90
31133;DHT22;17779;50.942;4.026;2024-01-07T06:17:58;3.10;99.90
31133;DHT22;17779;50.942;4.026;2024-01-07T06:20:24;3.10;99.90
31133;DHT22;17779;50.942;4.026;2024-01-07T06:22:50;3.10;99.90
31133;DHT22;17779;50.942;4.026;2024-01-07T06:25:15;3.10;99.90
31133;DHT22;17779;50.942;4.026;2024-01-07T06:27:43;3.00;99.90
31133;DHT22;17779;50.942;4.026;2024-01-07T06:30:09;2.90;99.90
31133;DHT22;17779;50.942;4.026;2024-01-07T06:32:35;2.80;99.90
31133;DHT22;17779;50.942;4.026;2024-01-07T06:35:01;2.80;99.90
31133;DHT22;17779;50.942;4.026;2024-01-07T06:37:27;2.80;99.90
31133;DHT22;17779;50.942;4.026;2024-01-07T06:39:54;2.90;99.90
31133;DHT22;17779;50.942;4.026;2024-01-07T06:42:20;2.90;99.90
31133;DHT22;17779;50.942;4.026;2024-01-07T06:44:46;2.80;99.90
31133;DHT22;17779;50.942;4.026;2024-01-07T06:47:11;2.90;99.90
31133;DHT22;17779;50.942;4.026;2024-01-07T06:49:37;2.90;99.90
31133;DHT22;17779;50.942;4.026;2024-01-07T06:52:04;2.90;99.90
31133;DHT22;17779;50.942;4.026;2024-01-07T06:54:30;2.90;99.90
31133;DHT22;17779;50.942;4.026;2024-01-07T06:56:55;3.00;99.90
31133;DHT22;17779;50.942;4.026;2024-01-07T06:59:21;3.00;99.90
31133;DHT22;17779;50.942;4.026;2024-01-07T07:01:47;2.90;99.90
31133;DHT22;17779;50.942;4.026;2024-01-07T07:04:12;2.90;99.90
31133;DHT22;17779;50.942;4.026;2024-01-07T07:06:38;2.80;99.90
31133;DHT22;17779;50.942;4.026;2024-01-07T07:09:04;2.80;99.90
31133;DHT22;17779;50.942;4.026;2024-01-07T07:11:30;2.90;99.90
31133;DHT22;17779;50.942;4.026;2024-01-07T07:13:56;2.80;99.90
31133;DHT22;17779;50.942;4.026;2024-01-07T07:16:22;2.90;99.90
31133;DHT22;17779;50.942;4.026;2024-01-07T07:18:48;2.90;99.90
31133;DHT22;17779;50.942;4.026;2024-01-07T07:21:14;2.80;99.90
31133;DHT22;17779;50.942;4.026;2024-01-07T07:23:41;2.80;99.90
31133;DHT22;17779;50.942;4.026;2024-01-07T07:26:08;2.80;99.90
31133;DHT22;17779;50.942;4.026;2024-01-07T07:28:33;2.70;99.90
31133;DHT22;17779;50.942;4.026;2024-01-07T07:30:59;2.80;99.90
31133;DHT22;17779;50.942;4.026;2024-01-07T07:33:25;2.70;99.90
31133;DHT22;17779;50.942;4.026;2024-01-07T07:35:50;2.60;99.90
31133;DHT22;17779;50.942;4.026;2024-01-07T07:38:16;2.60;99.90
31133;DHT22;17779;50.942;4.026;2024-01-07T07:40:42;2.60;99.90
31133;DHT22;17779;50.942;4.026;2024-01-07T07:43:10;2.70;99.90
31133;DHT22;17779;50.942;4.026;2024-01-07T07:45:35;2.60;99.90
31133;DHT22;17779;50.942;4.026;2024-01-07T07:48:01;2.70;99.90
31133;DHT22;17779;50.942;4.026;2024-01-07T07:50:26;2.70;99.90
31133;DHT22;17779;50.942;4.026;2024-01-07T07:52:52;2.70;99.90
31133;DHT22;17779;50.942;4.026;2024-01-07T07:55:19;2.60;99.90
31133;DHT22;17779;50.942;4.026;2024-01-07T07:57:46;2.60;99.90
31133;DHT22;17779;50.942;4.026;2024-01-07T08:00:12;2.60;99.90
31133;DHT22;17779;50.942;4.026;2024-01-07T08:02:38;2.60;99.90
31133;DHT22;17779;50.942;4.026;2024-01-07T08:05:04;2.70;99.90
31133;DHT22;17779;50.942;4.026;2024-01-07T08:07:30;2.80;99.90
31133;DHT22;17779;50.942;4.026;2024-01-07T08:09:55;2.80;99.90
31133;DHT22;17779;50.942;4.026;2024-01-07T08:12:24;2.80;99.90
31133;DHT22;17779;50.942;4.026;2024-01-07T08:14:50;2.80;99.90
31133;DHT22;17779;50.942;4.026;2024-01-07T08:17:16;2.90;99.90
31133;DHT22;17779;50.942;4.026;2024-01-07T08:19:42;2.80;99.90
31133;DHT22;17779;50.942;4.026;2024-01-07T08:22:10;2.90;99.90
31133;DHT22;17779;50.942;4.026;2024-01-07T08:24:36;3.00;99.90
31133;DHT22;17779;50.942;4.026;2024-01-07T08:27:02;3.10;99.90
31133;DHT22;17779;50.942;4.026;2024-01-07T08:29:28;3.00;99.90
31133;DHT22;17779;50.942;4.026;2024-01-07T08:31:55;3.10;99.90
31133;DHT22;17779;50.942;4.026;2024-01-07T08:34:20;3.00;99.90
31133;DHT22;17779;50.942;4.026;2024-01-07T08:36:46;3.10;99.90
31133;DHT22;17779;50.942;4.026;2024-01-07T08:39:14;2.90;99.90
31133;DHT22;17779;50.942;4.026;2024-01-07T08:41:39;2.90;99.90
31133;DHT22;17779;50.942;4.026;2024-01-07T08:44:05;2.90;99.90
31133;DHT22;17779;50.942;4.026;2024-01-07T08:46:34;2.90;99.90
31133;DHT22;17779;50.942;4.026;2024-01-07T08:49:01;2.80;99.90
31133;DHT22;17779;50.942;4.026;2024-01-07T08:51:27;2.80;99.90
31133;DHT22;17779;50.942;4.026;2024-01-07T08:53:54;2.80;99.90
31133;DHT22;17779;50.942;4.026;2024-01-07T08:56:21;2.90;99.90
31133;DHT22;17779;50.942;4.026;2024-01-07T08:58:47;2.90;99.90
31133;DHT22;17779;50.942;4.026;2024-01-07T09:01:12;2.90;99.90
31133;DHT22;17779;50.942;4.026;2024-01-07T09:03:39;2.80;99.90
31133;DHT22;17779;50.942;4.026;2024-01-07T09:06:05;2.80;99.90
31133;DHT22;17779;50.942;4.026;2024-01-07T09:08:31;3.00;99.90
31133;DHT22;17779;50.942;4.026;2024-01-07T09:10:57;3.10;99.90
31133;DHT22;17779;50.942;4.026;2024-01-07T09:13:22;3.00;99.90
31133;DHT22;17779;50.942;4.026;2024-01-07T09:15:49;3.00;99.90
31133;DHT22;17779;50.942;4.026;2024-01-07T09:18:15;3.00;99.90
31133;DHT22;17779;50.942;4.026;2024-01-07T09:20:40;3.00;99.90
31133;DHT22;17779;50.942;4.026;2024-01-07T09:23:06;2.90;99.90
31133;DHT22;17779;50.942;4.026;2024-01-07T09:25:31;2.80;99.90
31133;DHT22;17779;50.942;4.026;2024-01-07T09:27:57;2.80;99.90
31133;DHT22;17779;50.942;4.026;2024-01-07T09:30:23;2.80;99.90
31133;DHT22;17779;50.942;4.026;2024-01-07T09:32:48;2.90;99.90
31133;DHT22;17779;50.942;4.026;2024-01-07T09:35:15;2.80;99.90
31133;DHT22;17779;50.942;4.026;2024-01-07T09:37:42;2.70;99.90
31133;DHT22;17779;50.942;4.026;2024-01-07T09:40:07;2.70;99.90
31133;DHT22;17779;50.942;4.026;2024-01-07T09:42:33;2.90;99.90
31133;DHT22;17779;50.942;4.026;2024-01-07T09:45:02;2.90;99.90
31133;DHT22;17779;50.942;4.026;2024-01-07T09:47:29;2.90;99.90
31133;DHT22;17779;50.942;4.026;2024-01-07T09:49:56;2.80;99.90
31133;DHT22;17779;50.942;4.026;2024-01-07T09:52:22;2.90;99.90
31133;DHT22;17779;50.942;4.026;2024-01-07T09:54:50;3.10;99.90
31133;DHT22;17779;50.942;4.026;2024-01-07T09:57:16;3.10;99.90
31133;DHT22;17779;50.942;4.026;2024-01-07T09:59:42;2.90;99.90
31133;DHT22;17779;50.942;4.026;2024-01-07T10:02:07;2.90;99.90
31133;DHT22;17779;50.942;4.026;2024-01-07T10:04:34;2.80;99.90
31133;DHT22;17779;50.942;4.026;2024-01-07T10:07:00;2.80;99.90
31133;DHT22;17779;50.942;4.026;2024-01-07T10:09:29;2.80;99.90
31133;DHT22;17779;50.942;4.026;2024-01-07T10:11:55;2.80;99.90
31133;DHT22;17779;50.942;4.026;2024-01-07T10:14:21;2.80;99.90
31133;DHT22;17779;50.942;4.026;2024-01-07T10:16:52;2.80;99.90
31133;DHT22;17779;50.942;4.026;2024-01-07T10:19:24;2.80;99.90
31133;DHT22;17779;50.942;4.026;2024-01-07T10:21:59;2.80;99.90
31133;DHT22;17779;50.942;4.026;2024-01-07T10:24:26;2.70;99.90
31133;DHT22;17779;50.942;4.026;2024-01-07T10:26:53;2.80;99.90
31133;DHT22;17779;50.942;4.026;2024-01-07T10:29:18;2.80;99.90
31133;DHT22;17779;50.942;4.026;2024-01-07T10:31:46;2.80;99.90
31133;DHT22;17779;50.942;4.026;2024-01-07T10:34:11;2.80;99.90
31133;DHT22;17779;50.942;4.026;2024-01-07T10:36:39;2.70;99.90
31133;DHT22;17779;50.942;4.026;2024-01-07T10:39:05;2.80;99.90
31133;DHT22;17779;50.942;4.026;2024-01-07T10:41:32;2.70;99.90
31133;DHT22;17779;50.942;4.026;2024-01-07T10:44:00;2.80;99.90
31133;DHT22;17779;50.942;4.026;2024-01-07T10:46:25;2.80;99.90
31133;DHT22;17779;50.942;4.026;2024-01-07T10:49:00;2.70;99.90
31133;DHT22;17779;50.942;4.026;2024-01-07T10:51:29;2.80;99.90
31133;DHT22;17779;50.942;4.026;2024-01-07T10:53:58;2.70;99.90
31133;DHT22;17779;50.942;4.026;2024-01-07T10:56:25;2.70;99.90
31133;DHT22;17779;50.942;4.026;2024-01-07T10:58:54;2.80;99.90
31133;DHT22;17779;50.942;4.026;2024-01-07T11:01:20;2.70;99.90
31133;DHT22;17779;50.942;4.026;2024-01-07T11:04:08;2.60;99.90
31133;DHT22;17779;50.942;4.026;2024-01-07T11:09:23;2.60;99.90
31133;DHT22;17779;50.942;4.026;2024-01-07T11:11:52;2.60;99.90
31133;DHT22;17779;50.942;4.026;2024-01-07T11:14:36;2.60;99.90
31133;DHT22;17779;50.942;4.026;2024-01-07T11:17:03;2.60;99.90
31133;DHT22;17779;50.942;4.026;2024-01-07T11:19:29;2.60;99.90
31133;DHT22;17779;50.942;4.026;2024-01-07T11:24:40;2.60;99.90
31133;DHT22;17779;50.942;4.026;2024-01-07T11:27:08;2.70;99.90
31133;DHT22;17779;50.942;4.026;2024-01-07T11:29:35;2.70;99.90
31133;DHT22;17779;50.942;4.026;2024-01-07T11:32:00;2.60;99.90
31133;DHT22;17779;50.942;4.026;2024-01-07T11:34:42;2.60;99.90
31133;DHT22;17779;50.942;4.026;2024-01-07T11:37:14;2.70;99.90
31133;DHT22;17779;50.942;4.026;2024-01-07T11:39:47;2.70;99.90
31133;DHT22;17779;50.942;4.026;2024-01-07T11:42:14;2.50;99.90
31133;DHT22;17779;50.942;4.026;2024-01-07T11:44:51;2.60;99.90
31133;DHT22;17779;50.942;4.026;2024-01-07T11:47:17;2.60;99.90
31133;DHT22;17779;50.942;4.026;2024-01-07T11:49:43;2.60;99.90
31133;DHT22;17779;50.942;4.026;2024-01-07T11:52:08;2.60;99.90
31133;DHT22;17779;50.942;4.026;2024-01-07T11:54:38;2.70;99.90
31133;DHT22;17779;50.942;4.026;2024-01-07T11:57:04;2.60;99.90
31133;DHT22;17779;50.942;4.026;2024-01-07T11:59:30;2.70;99.90
31133;DHT22;17779;50.942;4.026;2024-01-07T12:01:55;2.70;99.90
31133;DHT22;17779;50.942;4.026;2024-01-07T12:04:22;2.60;99.90
31133;DHT22;17779;50.942;4.026;2024-01-07T12:06:48;2.60;99.90
31133;DHT22;17779;50.942;4.026;2024-01-07T12:09:13;2.60;99.90
31133;DHT22;17779;50.942;4.026;2024-01-07T12:11:40;2.70;99.90
31133;DHT22;17779;50.942;4.026;2024-01-07T12:14:07;2.70;99.90
31133;DHT22;17779;50.942;4.026;2024-01-07T12:16:33;2.60;99.90
31133;DHT22;17779;50.942;4.026;2024-01-07T12:19:05;2.50;99.90
31133;DHT22;17779;50.942;4.026;2024-01-07T12:21:32;2.50;99.90
31133;DHT22;17779;50.942;4.026;2024-01-07T12:24:03;2.50;99.90
31133;DHT22;17779;50.942;4.026;2024-01-07T12:26:29;2.50;99.90
31133;DHT22;17779;50.942;4.026;2024-01-07T12:28:57;2.50;99.90
31133;DHT22;17779;50.942;4.026;2024-01-07T12:31:28;2.60;99.90
31133;DHT22;17779;50.942;4.026;2024-01-07T12:33:53;2.70;99.90
31133;DHT22;17779;50.942;4.026;2024-01-07T12:36:22;2.80;99.90
31133;DHT22;17779;50.942;4.026;2024-01-07T12:38:50;2.80;99.90
31133;DHT22;17779;50.942;4.026;2024-01-07T12:41:17;2.70;99.90
31133;DHT22;17779;50.942;4.026;2024-01-07T12:43:43;2.80;99.90
31133;DHT22;17779;50.942;4.026;2024-01-07T12:46:09;2.90;99.90
31133;DHT22;17779;50.942;4.026;2024-01-07T12:48:36;2.90;99.90
31133;DHT22;17779;50.942;4.026;2024-01-07T12:51:03;2.80;99.90
31133;DHT22;17779;50.942;4.026;2024-01-07T12:53:29;2.90;99.90
31133;DHT22;17779;50.942;4.026;2024-01-07T12:55:56;2.80;99.90
31133;DHT22;17779;50.942;4.026;2024-01-07T12:58:21;2.80;99.90
31133;DHT22;17779;50.942;4.026;2024-01-07T13:00:47;2.70;99.90
31133;DHT22;17779;50.942;4.026;2024-01-07T13:03:13;2.90;99.90
31133;DHT22;17779;50.942;4.026;2024-01-07T13:05:46;3.00;99.90
31133;DHT22;17779;50.942;4.026;2024-01-07T13:08:16;2.80;99.90
31133;DHT22;17779;50.942;4.026;2024-01-07T13:10:45;2.80;99.90
31133;DHT22;17779;50.942;4.026;2024-01-07T13:13:11;2.70;99.90
31133;DHT22;17779;50.942;4.026;2024-01-07T13:15:39;2.70;99.90
31133;DHT22;17779;50.942;4.026;2024-01-07T13:18:06;2.70;99.90
31133;DHT22;17779;50.942;4.026;2024-01-07T13:20:32;2.70;99.90
31133;DHT22;17779;50.942;4.026;2024-01-07T13:22:59;2.80;99.90
31133;DHT22;17779;50.942;4.026;2024-01-07T13:25:25;2.70;99.90
31133;DHT22;17779;50.942;4.026;2024-01-07T13:27:51;2.90;99.90
31133;DHT22;17779;50.942;4.026;2024-01-07T13:30:17;3.00;99.90
31133;DHT22;17779;50.942;4.026;2024-01-07T13:32:43;3.00;99.90
31133;DHT22;17779;50.942;4.026;2024-01-07T13:35:08;3.00;99.90
31133;DHT22;17779;50.942;4.026;2024-01-07T13:37:36;2.80;99.90
31133;DHT22;17779;50.942;4.026;2024-01-07T13:40:01;2.80;99.90
31133;DHT22;17779;50.942;4.026;2024-01-07T13:42:29;2.70;99.90
31133;DHT22;17779;50.942;4.026;2024-01-07T13:44:54;2.60;99.90
31133;DHT22;17779;50.942;4.026;2024-01-07T13:47:20;2.50;99.90
31133;DHT22;17779;50.942;4.026;2024-01-07T13:49:46;2.60;99.90
31133;DHT22;17779;50.942;4.026;2024-01-07T13:52:12;2.50;99.90
31133;DHT22;17779;50.942;4.026;2024-01-07T13:54:39;2.50;99.90
31133;DHT22;17779;50.942;4.026;2024-01-07T13:57:05;2.40;99.90
31133;DHT22;17779;50.942;4.026;2024-01-07T13:59:32;2.50;99.90
31133;DHT22;17779;50.942;4.026;2024-01-07T14:01:57;2.60;99.90
31133;DHT22;17779;50.942;4.026;2024-01-07T14:04:24;2.60;99.90
31133;DHT22;17779;50.942;4.026;2024-01-07T14:06:54;2.50;99.90
31133;DHT22;17779;50.942;4.026;2024-01-07T14:09:22;2.40;99.90
31133;DHT22;17779;50.942;4.026;2024-01-07T14:11:49;2.40;99.90
31133;DHT22;17779;50.942;4.026;2024-01-07T14:14:14;2.40;99.90
31133;DHT22;17779;50.942;4.026;2024-01-07T14:16:42;2.40;99.90
31133;DHT22;17779;50.942;4.026;2024-01-07T14:19:08;2.30;99.90
31133;DHT22;17779;50.942;4.026;2024-01-07T14:21:33;2.30;99.90
31133;DHT22;17779;50.942;4.026;2024-01-07T14:23:59;2.40;99.90
31133;DHT22;17779;50.942;4.026;2024-01-07T14:26:26;2.50;99.90
31133;DHT22;17779;50.942;4.026;2024-01-07T14:28:52;2.50;99.90
31133;DHT22;17779;50.942;4.026;2024-01-07T14:31:17;2.40;99.90
31133;DHT22;17779;50.942;4.026;2024-01-07T14:33:45;2.40;99.90
31133;DHT22;17779;50.942;4.026;2024-01-07T14:36:10;2.40;99.90
31133;DHT22;17779;50.942;4.026;2024-01-07T14:38:45;2.40;99.90
31133;DHT22;17779;50.942;4.026;2024-01-07T14:41:13;2.40;99.90
31133;DHT22;17779;50.942;4.026;2024-01-07T14:43:39;2.40;99.90
31133;DHT22;17779;50.942;4.026;2024-01-07T14:46:08;2.30;99.90
31133;DHT22;17779;50.942;4.026;2024-01-07T14:48:34;2.30;99.90
31133;DHT22;17779;50.942;4.026;2024-01-07T14:51:00;2.30;99.90
31133;DHT22;17779;50.942;4.026;2024-01-07T14:53:26;2.30;99.90
31133;DHT22;17779;50.942;4.026;2024-01-07T14:55:55;2.20;99.90
31133;DHT22;17779;50.942;4.026;2024-01-07T14:58:22;2.20;99.90
31133;DHT22;17779;50.942;4.026;2024-01-07T15:00:48;2.20;99.90
31133;DHT22;17779;50.942;4.026;2024-01-07T15:03:15;2.20;99.90
31133;DHT22;17779;50.942;4.026;2024-01-07T15:05:41;2.30;99.90
31133;DHT22;17779;50.942;4.026;2024-01-07T15:08:08;2.30;99.90
31133;DHT22;17779;50.942;4.026;2024-01-07T15:10:35;2.20;99.90
31133;DHT22;17779;50.942;4.026;2024-01-07T15:13:01;2.20;99.90
31133;DHT22;17779;50.942;4.026;2024-01-07T15:15:27;2.20;99.90
31133;DHT22;17779;50.942;4.026;2024-01-07T15:17:55;2.20;99.90
31133;DHT22;17779;50.942;4.026;2024-01-07T15:20:21;2.30;99.90
31133;DHT22;17779;50.942;4.026;2024-01-07T15:22:46;2.20;99.90
31133;DHT22;17779;50.942;4.026;2024-01-07T15:25:20;2.20;99.90
31133;DHT22;17779;50.942;4.026;2024-01-07T15:27:46;2.20;99.90
31133;DHT22;17779;50.942;4.026;2024-01-07T15:30:12;2.20;99.90
31133;DHT22;17779;50.942;4.026;2024-01-07T15:32:38;2.20;99.90
31133;DHT22;17779;50.942;4.026;2024-01-07T15:35:05;2.20;99.90
31133;DHT22;17779;50.942;4.026;2024-01-07T15:37:31;2.20;99.90
31133;DHT22;17779;50.942;4.026;2024-01-07T15:39:57;2.20;99.90
31133;DHT22;17779;50.942;4.026;2024-01-07T15:42:23;2.20;99.90
31133;DHT22;17779;50.942;4.026;2024-01-07T15:44:49;2.30;99.90